sensor_id;sensor_type;location;lat;lon;timestamp;P1;durP1;ratioP1;P2;durP2;ratioP2
19679;SDS011;9989;48.962;9.182;2023-03-12T00:01:34;18.60;;;9.40;;
19679;SDS011;9989;48.962;9.182;2023-03-12T00:04:02;16.27;;;9.93;;
19679;SDS011;9989;48.962;9.182;2023-03-12T00:06:28;18.33;;;9.63;;
19679;SDS011;9989;48.962;9.182;2023-03-12T00:08:54;18.07;;;9.87;;
19679;SDS011;9989;48.962;9.182;2023-03-12T00:11:19;18.33;;;9.00;;
19679;SDS011;9989;48.962;9.182;2023-03-12T00:13:52;16.13;;;9.63;;
19679;SDS011;9989;48.962;9.182;2023-03-12T00:16:19;16.67;;;9.57;;
19679;SDS011;9989;48.962;9.182;2023-03-12T00:18:46;18.57;;;10.37;;
19679;SDS011;9989;48.962;9.182;2023-03-12T00:21:13;21.13;;;9.93;;
19679;SDS011;9989;48.962;9.182;2023-03-12T00:23:39;20.30;;;9.90;;
19679;SDS011;9989;48.962;9.182;2023-03-12T00:26:06;19.47;;;9.30;;
19679;SDS011;9989;48.962;9.182;2023-03-12T00:28:34;17.23;;;9.47;;
19679;SDS011;9989;48.962;9.182;2023-03-12T00:31:01;16.17;;;8.87;;
19679;SDS011;9989;48.962;9.182;2023-03-12T00:33:27;16.53;;;9.50;;
19679;SDS011;9989;48.962;9.182;2023-03-12T00:35:53;16.60;;;9.33;;
19679;SDS011;9989;48.962;9.182;2023-03-12T00:38:20;19.13;;;9.97;;
19679;SDS011;9989;48.962;9.182;2023-03-12T00:40:46;17.73;;;9.80;;
19679;SDS011;9989;48.962;9.182;2023-03-12T00:43:12;17.53;;;9.97;;
19679;SDS011;9989;48.962;9.182;2023-03-12T00:45:38;21.17;;;10.47;;
19679;SDS011;9989;48.962;9.182;2023-03-12T00:48:04;15.90;;;9.43;;
19679;SDS011;9989;48.962;9.182;2023-03-12T00:50:30;18.87;;;10.50;;
19679;SDS011;9989;48.962;9.182;2023-03-12T00:52:55;18.17;;;10.10;;
19679;SDS011;9989;48.962;9.182;2023-03-12T00:55:21;18.23;;;9.50;;
19679;SDS011;9989;48.962;9.182;2023-03-12T00:57:46;16.77;;;8.87;;
19679;SDS011;9989;48.962;9.182;2023-03-12T01:00:12;18.00;;;9.60;;
19679;SDS011;9989;48.962;9.182;2023-03-12T01:02:38;16.80;;;9.57;;
19679;SDS011;9989;48.962;9.182;2023-03-12T01:05:07;15.57;;;9.20;;
19679;SDS011;9989;48.962;9.182;2023-03-12T01:07:36;28.73;;;11.97;;
19679;SDS011;9989;48.962;9.182;2023-03-12T01:10:02;30.90;;;13.40;;
19679;SDS011;9989;48.962;9.182;2023-03-12T01:12:28;35.53;;;14.80;;
19679;SDS011;9989;48.962;9.182;2023-03-12T01:14:53;35.07;;;13.20;;
19679;SDS011;9989;48.962;9.182;2023-03-12T01:17:19;22.03;;;10.60;;
19679;SDS011;9989;48.962;9.182;2023-03-12T01:19:45;19.07;;;10.10;;
19679;SDS011;9989;48.962;9.182;2023-03-12T01:22:10;17.47;;;9.60;;
19679;SDS011;9989;48.962;9.182;2023-03-12T01:24:36;17.67;;;10.00;;
19679;SDS011;9989;48.962;9.182;2023-03-12T01:27:01;17.30;;;9.13;;
19679;SDS011;9989;48.962;9.182;2023-03-12T01:29:27;18.37;;;9.50;;
19679;SDS011;9989;48.962;9.182;2023-03-12T01:31:53;14.23;;;8.13;;
19679;SDS011;9989;48.962;9.182;2023-03-12T01:34:18;22.10;;;9.63;;
19679;SDS011;9989;48.962;9.182;2023-03-12T01:36:44;14.97;;;8.80;;
19679;SDS011;9989;48.962;9.182;2023-03-12T01:39:12;14.53;;;8.47;;
19679;SDS011;9989;48.962;9.182;2023-03-12T01:41:38;18.77;;;9.27;;
19679;SDS011;9989;48.962;9.182;2023-03-12T01:44:04;17.40;;;8.80;;
19679;SDS011;9989;48.962;9.182;2023-03-12T01:49:16;14.07;;;8.33;;
19679;SDS011;9989;48.962;9.182;2023-03-12T01:52:05;16.73;;;8.33;;
19679;SDS011;9989;48.962;9.182;2023-03-12T01:54:44;17.07;;;8.97;;
19679;SDS011;9989;48.962;9.182;2023-03-12T01:57:20;14.73;;;8.63;;
19679;SDS011;9989;48.962;9.182;2023-03-12T01:59:59;14.20;;;7.77;;
19679;SDS011;9989;48.962;9.182;2023-03-12T02:02:37;17.43;;;8.83;;
19679;SDS011;9989;48.962;9.182;2023-03-12T02:05:12;14.30;;;8.23;;
19679;SDS011;9989;48.962;9.182;2023-03-12T02:07:54;15.43;;;7.63;;
19679;SDS011;9989;48.962;9.182;2023-03-12T02:10:21;15.67;;;7.63;;
19679;SDS011;9989;48.962;9.182;2023-03-12T02:12:47;13.57;;;7.37;;
19679;SDS011;9989;48.962;9.182;2023-03-12T02:15:12;13.83;;;7.63;;
19679;SDS011;9989;48.962;9.182;2023-03-12T02:17:38;12.57;;;7.27;;
19679;SDS011;9989;48.962;9.182;2023-03-12T02:23:25;15.23;;;6.87;;
19679;SDS011;9989;48.962;9.182;2023-03-12T02:25:59;14.93;;;7.23;;
19679;SDS011;9989;48.962;9.182;2023-03-12T02:28:27;14.93;;;7.23;;
19679;SDS011;9989;48.962;9.182;2023-03-12T02:30:56;14.37;;;6.57;;
19679;SDS011;9989;48.962;9.182;2023-03-12T02:33:23;16.30;;;7.40;;
19679;SDS011;9989;48.962;9.182;2023-03-12T02:35:50;12.80;;;7.13;;
19679;SDS011;9989;48.962;9.182;2023-03-12T02:38:50;13.73;;;7.20;;
19679;SDS011;9989;48.962;9.182;2023-03-12T02:41:11;13.80;;;7.20;;
19679;SDS011;9989;48.962;9.182;2023-03-12T02:43:44;16.13;;;7.67;;
19679;SDS011;9989;48.962;9.182;2023-03-12T02:46:11;15.53;;;7.20;;
19679;SDS011;9989;48.962;9.182;2023-03-12T02:48:40;15.43;;;7.33;;
19679;SDS011;9989;48.962;9.182;2023-03-12T02:51:06;13.97;;;7.47;;
19679;SDS011;9989;48.962;9.182;2023-03-12T02:53:31;12.77;;;7.03;;
19679;SDS011;9989;48.962;9.182;2023-03-12T02:55:57;14.13;;;7.33;;
19679;SDS011;9989;48.962;9.182;2023-03-12T02:58:23;15.67;;;7.57;;
19679;SDS011;9989;48.962;9.182;2023-03-12T03:00:48;15.07;;;7.63;;
19679;SDS011;9989;48.962;9.182;2023-03-12T03:03:14;15.20;;;7.90;;
19679;SDS011;9989;48.962;9.182;2023-03-12T03:05:40;15.23;;;7.70;;
19679;SDS011;9989;48.962;9.182;2023-03-12T03:08:05;14.90;;;8.17;;
19679;SDS011;9989;48.962;9.182;2023-03-12T03:10:31;15.13;;;8.73;;
19679;SDS011;9989;48.962;9.182;2023-03-12T03:12:57;14.07;;;8.47;;
19679;SDS011;9989;48.962;9.182;2023-03-12T03:15:23;13.83;;;8.10;;
19679;SDS011;9989;48.962;9.182;2023-03-12T03:17:48;14.50;;;8.40;;
19679;SDS011;9989;48.962;9.182;2023-03-12T03:20:17;17.03;;;8.70;;
19679;SDS011;9989;48.962;9.182;2023-03-12T03:22:42;18.73;;;9.53;;
19679;SDS011;9989;48.962;9.182;2023-03-12T03:25:08;18.07;;;9.67;;
19679;SDS011;9989;48.962;9.182;2023-03-12T03:27:35;16.50;;;9.07;;
19679;SDS011;9989;48.962;9.182;2023-03-12T03:30:00;14.83;;;9.30;;
19679;SDS011;9989;48.962;9.182;2023-03-12T03:32:26;18.73;;;9.13;;
19679;SDS011;9989;48.962;9.182;2023-03-12T03:34:52;19.67;;;9.60;;
19679;SDS011;9989;48.962;9.182;2023-03-12T03:37:18;16.10;;;8.73;;
19679;SDS011;9989;48.962;9.182;2023-03-12T03:39:43;14.13;;;8.90;;
19679;SDS011;9989;48.962;9.182;2023-03-12T03:42:09;15.00;;;8.87;;
19679;SDS011;9989;48.962;9.182;2023-03-12T03:44:35;13.80;;;8.33;;
19679;SDS011;9989;48.962;9.182;2023-03-12T03:47:00;18.47;;;9.33;;
19679;SDS011;9989;48.962;9.182;2023-03-12T03:49:26;17.40;;;8.33;;
19679;SDS011;9989;48.962;9.182;2023-03-12T03:51:52;15.53;;;8.53;;
19679;SDS011;9989;48.962;9.182;2023-03-12T03:54:17;18.23;;;9.67;;
19679;SDS011;9989;48.962;9.182;2023-03-12T03:56:43;16.93;;;9.27;;
19679;SDS011;9989;48.962;9.182;2023-03-12T03:59:09;18.37;;;10.07;;
19679;SDS011;9989;48.962;9.182;2023-03-12T04:01:35;14.80;;;8.93;;
19679;SDS011;9989;48.962;9.182;2023-03-12T04:04:01;20.17;;;9.93;;
19679;SDS011;9989;48.962;9.182;2023-03-12T04:06:27;13.67;;;8.60;;
19679;SDS011;9989;48.962;9.182;2023-03-12T04:08:54;16.70;;;9.23;;
19679;SDS011;9989;48.962;9.182;2023-03-12T04:11:23;17.70;;;9.13;;
19679;SDS011;9989;48.962;9.182;2023-03-12T04:13:49;16.80;;;9.27;;
19679;SDS011;9989;48.962;9.182;2023-03-12T04:16:15;15.67;;;8.63;;
19679;SDS011;9989;48.962;9.182;2023-03-12T04:18:41;17.37;;;9.53;;
19679;SDS011;9989;48.962;9.182;2023-03-12T04:21:08;17.53;;;9.30;;
19679;SDS011;9989;48.962;9.182;2023-03-12T04:23:35;16.97;;;9.50;;
19679;SDS011;9989;48.962;9.182;2023-03-12T04:26:02;19.00;;;9.03;;
19679;SDS011;9989;48.962;9.182;2023-03-12T04:28:28;16.13;;;9.03;;
19679;SDS011;9989;48.962;9.182;2023-03-12T04:30:57;16.53;;;8.70;;
19679;SDS011;9989;48.962;9.182;2023-03-12T04:33:25;15.03;;;8.07;;
19679;SDS011;9989;48.962;9.182;2023-03-12T04:35:52;14.10;;;8.07;;
19679;SDS011;9989;48.962;9.182;2023-03-12T04:38:19;15.17;;;7.40;;
19679;SDS011;9989;48.962;9.182;2023-03-12T04:40:45;15.00;;;8.37;;
19679;SDS011;9989;48.962;9.182;2023-03-12T04:43:11;14.37;;;6.97;;
19679;SDS011;9989;48.962;9.182;2023-03-12T04:45:36;12.60;;;7.27;;
19679;SDS011;9989;48.962;9.182;2023-03-12T04:48:03;17.53;;;8.03;;
19679;SDS011;9989;48.962;9.182;2023-03-12T04:50:32;16.17;;;7.80;;
19679;SDS011;9989;48.962;9.182;2023-03-12T04:52:57;14.27;;;7.20;;
19679;SDS011;9989;48.962;9.182;2023-03-12T04:55:23;13.57;;;7.27;;
19679;SDS011;9989;48.962;9.182;2023-03-12T04:57:49;13.17;;;7.50;;
19679;SDS011;9989;48.962;9.182;2023-03-12T05:00:14;16.87;;;7.80;;
19679;SDS011;9989;48.962;9.182;2023-03-12T05:02:41;13.80;;;7.37;;
19679;SDS011;9989;48.962;9.182;2023-03-12T05:05:07;13.70;;;7.00;;
19679;SDS011;9989;48.962;9.182;2023-03-12T05:07:35;12.93;;;7.07;;
19679;SDS011;9989;48.962;9.182;2023-03-12T05:10:00;12.63;;;7.30;;
19679;SDS011;9989;48.962;9.182;2023-03-12T05:12:26;13.93;;;7.03;;
19679;SDS011;9989;48.962;9.182;2023-03-12T05:14:51;17.20;;;7.17;;
19679;SDS011;9989;48.962;9.182;2023-03-12T05:17:17;14.73;;;7.43;;
19679;SDS011;9989;48.962;9.182;2023-03-12T05:19:42;13.30;;;7.40;;
19679;SDS011;9989;48.962;9.182;2023-03-12T05:22:08;18.83;;;7.47;;
19679;SDS011;9989;48.962;9.182;2023-03-12T05:24:34;11.90;;;6.97;;
19679;SDS011;9989;48.962;9.182;2023-03-12T05:27:00;13.27;;;6.90;;
19679;SDS011;9989;48.962;9.182;2023-03-12T05:29:25;12.93;;;6.60;;
19679;SDS011;9989;48.962;9.182;2023-03-12T05:31:54;12.03;;;6.80;;
19679;SDS011;9989;48.962;9.182;2023-03-12T05:34:19;14.37;;;6.17;;
19679;SDS011;9989;48.962;9.182;2023-03-12T05:36:45;14.37;;;7.17;;
19679;SDS011;9989;48.962;9.182;2023-03-12T05:39:11;17.97;;;7.17;;
19679;SDS011;9989;48.962;9.182;2023-03-12T05:41:36;11.03;;;6.20;;
19679;SDS011;9989;48.962;9.182;2023-03-12T05:44:02;13.03;;;6.60;;
19679;SDS011;9989;48.962;9.182;2023-03-12T05:46:27;11.67;;;6.30;;
19679;SDS011;9989;48.962;9.182;2023-03-12T05:48:53;14.17;;;6.57;;
19679;SDS011;9989;48.962;9.182;2023-03-12T05:51:19;12.40;;;6.57;;
19679;SDS011;9989;48.962;9.182;2023-03-12T05:53:45;13.93;;;6.17;;
19679;SDS011;9989;48.962;9.182;2023-03-12T05:56:12;13.47;;;6.20;;
19679;SDS011;9989;48.962;9.182;2023-03-12T05:58:40;13.77;;;7.83;;
19679;SDS011;9989;48.962;9.182;2023-03-12T06:01:14;15.87;;;6.87;;
19679;SDS011;9989;48.962;9.182;2023-03-12T06:03:42;16.27;;;6.53;;
19679;SDS011;9989;48.962;9.182;2023-03-12T06:06:08;12.23;;;6.13;;
19679;SDS011;9989;48.962;9.182;2023-03-12T06:08:33;13.87;;;6.90;;
19679;SDS011;9989;48.962;9.182;2023-03-12T06:10:59;14.63;;;7.40;;
19679;SDS011;9989;48.962;9.182;2023-03-12T06:13:25;12.73;;;6.40;;
19679;SDS011;9989;48.962;9.182;2023-03-12T06:15:52;13.57;;;6.60;;
19679;SDS011;9989;48.962;9.182;2023-03-12T06:18:18;14.13;;;7.13;;
19679;SDS011;9989;48.962;9.182;2023-03-12T06:20:44;10.73;;;6.30;;
19679;SDS011;9989;48.962;9.182;2023-03-12T06:23:09;10.90;;;6.07;;
19679;SDS011;9989;48.962;9.182;2023-03-12T06:25:35;13.40;;;6.77;;
19679;SDS011;9989;48.962;9.182;2023-03-12T06:28:01;12.60;;;7.13;;
19679;SDS011;9989;48.962;9.182;2023-03-12T06:30:26;18.70;;;8.07;;
19679;SDS011;9989;48.962;9.182;2023-03-12T06:32:52;16.90;;;9.73;;
19679;SDS011;9989;48.962;9.182;2023-03-12T06:35:18;16.10;;;8.57;;
19679;SDS011;9989;48.962;9.182;2023-03-12T06:37:44;13.60;;;7.20;;
19679;SDS011;9989;48.962;9.182;2023-03-12T06:40:10;14.53;;;6.93;;
19679;SDS011;9989;48.962;9.182;2023-03-12T06:42:37;13.00;;;7.03;;
19679;SDS011;9989;48.962;9.182;2023-03-12T06:45:04;13.73;;;7.27;;
19679;SDS011;9989;48.962;9.182;2023-03-12T06:47:30;15.47;;;8.67;;
19679;SDS011;9989;48.962;9.182;2023-03-12T06:49:55;14.40;;;8.47;;
19679;SDS011;9989;48.962;9.182;2023-03-12T06:52:21;15.10;;;8.17;;
19679;SDS011;9989;48.962;9.182;2023-03-12T06:54:47;15.03;;;8.53;;
19679;SDS011;9989;48.962;9.182;2023-03-12T06:57:12;13.73;;;7.23;;
19679;SDS011;9989;48.962;9.182;2023-03-12T06:59:40;12.70;;;7.50;;
19679;SDS011;9989;48.962;9.182;2023-03-12T07:02:08;15.27;;;7.20;;
19679;SDS011;9989;48.962;9.182;2023-03-12T07:04:37;16.20;;;7.87;;
19679;SDS011;9989;48.962;9.182;2023-03-12T07:07:03;13.23;;;7.50;;
19679;SDS011;9989;48.962;9.182;2023-03-12T07:09:29;18.07;;;8.97;;
19679;SDS011;9989;48.962;9.182;2023-03-12T07:11:54;20.23;;;10.70;;
19679;SDS011;9989;48.962;9.182;2023-03-12T07:14:20;14.27;;;8.13;;
19679;SDS011;9989;48.962;9.182;2023-03-12T07:16:46;12.97;;;7.57;;
19679;SDS011;9989;48.962;9.182;2023-03-12T07:19:12;13.13;;;7.30;;
19679;SDS011;9989;48.962;9.182;2023-03-12T07:21:37;13.73;;;6.97;;
19679;SDS011;9989;48.962;9.182;2023-03-12T07:24:03;11.93;;;7.23;;
19679;SDS011;9989;48.962;9.182;2023-03-12T07:26:32;12.50;;;7.57;;
19679;SDS011;9989;48.962;9.182;2023-03-12T07:28:59;12.20;;;6.97;;
19679;SDS011;9989;48.962;9.182;2023-03-12T07:31:25;14.47;;;8.13;;
19679;SDS011;9989;48.962;9.182;2023-03-12T07:33:50;18.27;;;9.43;;
19679;SDS011;9989;48.962;9.182;2023-03-12T07:36:16;18.67;;;9.63;;
19679;SDS011;9989;48.962;9.182;2023-03-12T07:38:41;15.53;;;9.23;;
19679;SDS011;9989;48.962;9.182;2023-03-12T07:41:07;16.03;;;9.27;;
19679;SDS011;9989;48.962;9.182;2023-03-12T07:43:33;23.13;;;11.90;;
19679;SDS011;9989;48.962;9.182;2023-03-12T07:45:58;15.13;;;9.03;;
19679;SDS011;9989;48.962;9.182;2023-03-12T07:48:24;14.40;;;8.70;;
19679;SDS011;9989;48.962;9.182;2023-03-12T07:50:49;15.03;;;8.37;;
19679;SDS011;9989;48.962;9.182;2023-03-12T07:53:15;19.17;;;10.57;;
19679;SDS011;9989;48.962;9.182;2023-03-12T07:55:42;16.63;;;9.20;;
19679;SDS011;9989;48.962;9.182;2023-03-12T07:58:09;16.13;;;8.73;;
19679;SDS011;9989;48.962;9.182;2023-03-12T08:00:36;17.77;;;8.40;;
19679;SDS011;9989;48.962;9.182;2023-03-12T08:03:02;15.73;;;8.60;;
19679;SDS011;9989;48.962;9.182;2023-03-12T08:05:28;18.57;;;8.80;;
19679;SDS011;9989;48.962;9.182;2023-03-12T08:07:53;14.17;;;7.63;;
19679;SDS011;9989;48.962;9.182;2023-03-12T08:10:19;15.87;;;7.50;;
19679;SDS011;9989;48.962;9.182;2023-03-12T08:12:45;12.90;;;6.83;;
19679;SDS011;9989;48.962;9.182;2023-03-12T08:15:11;14.17;;;6.50;;
19679;SDS011;9989;48.962;9.182;2023-03-12T08:17:37;12.07;;;7.00;;
19679;SDS011;9989;48.962;9.182;2023-03-12T08:20:04;13.50;;;6.87;;
19679;SDS011;9989;48.962;9.182;2023-03-12T08:22:33;16.63;;;7.50;;
19679;SDS011;9989;48.962;9.182;2023-03-12T08:24:59;17.70;;;8.20;;
19679;SDS011;9989;48.962;9.182;2023-03-12T08:27:25;16.90;;;8.40;;
19679;SDS011;9989;48.962;9.182;2023-03-12T08:29:51;15.40;;;8.40;;
19679;SDS011;9989;48.962;9.182;2023-03-12T08:32:17;16.47;;;8.23;;
19679;SDS011;9989;48.962;9.182;2023-03-12T08:34:42;15.50;;;7.97;;
19679;SDS011;9989;48.962;9.182;2023-03-12T08:37:08;16.10;;;8.10;;
19679;SDS011;9989;48.962;9.182;2023-03-12T08:39:33;13.00;;;7.93;;
19679;SDS011;9989;48.962;9.182;2023-03-12T08:41:59;13.57;;;7.03;;
19679;SDS011;9989;48.962;9.182;2023-03-12T08:44:25;13.57;;;7.83;;
19679;SDS011;9989;48.962;9.182;2023-03-12T08:46:51;14.13;;;7.17;;
19679;SDS011;9989;48.962;9.182;2023-03-12T08:49:17;13.83;;;7.83;;
19679;SDS011;9989;48.962;9.182;2023-03-12T08:51:44;19.40;;;7.77;;
19679;SDS011;9989;48.962;9.182;2023-03-12T08:54:10;13.33;;;6.93;;
19679;SDS011;9989;48.962;9.182;2023-03-12T08:56:35;12.67;;;7.13;;
19679;SDS011;9989;48.962;9.182;2023-03-12T08:59:05;12.03;;;7.10;;
19679;SDS011;9989;48.962;9.182;2023-03-12T09:01:31;13.20;;;7.47;;
19679;SDS011;9989;48.962;9.182;2023-03-12T09:03:57;14.57;;;8.13;;
19679;SDS011;9989;48.962;9.182;2023-03-12T09:06:23;15.60;;;8.93;;
19679;SDS011;9989;48.962;9.182;2023-03-12T09:08:48;16.07;;;8.33;;
19679;SDS011;9989;48.962;9.182;2023-03-12T09:11:15;16.20;;;8.13;;
19679;SDS011;9989;48.962;9.182;2023-03-12T09:13:41;16.33;;;9.00;;
19679;SDS011;9989;48.962;9.182;2023-03-12T09:16:07;13.83;;;8.43;;
19679;SDS011;9989;48.962;9.182;2023-03-12T09:18:33;16.53;;;8.57;;
19679;SDS011;9989;48.962;9.182;2023-03-12T09:21:00;14.07;;;7.47;;
19679;SDS011;9989;48.962;9.182;2023-03-12T09:23:26;13.50;;;7.73;;
19679;SDS011;9989;48.962;9.182;2023-03-12T09:25:52;15.67;;;7.73;;
19679;SDS011;9989;48.962;9.182;2023-03-12T09:28:18;14.60;;;8.37;;
19679;SDS011;9989;48.962;9.182;2023-03-12T09:30:44;16.13;;;9.20;;
19679;SDS011;9989;48.962;9.182;2023-03-12T09:33:10;13.60;;;7.67;;
19679;SDS011;9989;48.962;9.182;2023-03-12T09:35:37;14.40;;;8.07;;
19679;SDS011;9989;48.962;9.182;2023-03-12T09:38:02;12.73;;;7.50;;
19679;SDS011;9989;48.962;9.182;2023-03-12T09:40:30;12.30;;;7.33;;
19679;SDS011;9989;48.962;9.182;2023-03-12T09:42:58;18.17;;;9.93;;
19679;SDS011;9989;48.962;9.182;2023-03-12T09:45:31;17.13;;;9.00;;
19679;SDS011;9989;48.962;9.182;2023-03-12T09:48:05;17.10;;;8.13;;
19679;SDS011;9989;48.962;9.182;2023-03-12T09:50:37;16.50;;;8.67;;
19679;SDS011;9989;48.962;9.182;2023-03-12T09:55:51;16.57;;;9.33;;
19679;SDS011;9989;48.962;9.182;2023-03-12T10:00:52;15.80;;;9.67;;
19679;SDS011;9989;48.962;9.182;2023-03-12T10:06:05;14.70;;;8.77;;
19679;SDS011;9989;48.962;9.182;2023-03-12T10:20:00;17.13;;;9.50;;
19679;SDS011;9989;48.962;9.182;2023-03-12T10:22:55;17.83;;;10.27;;
19679;SDS011;9989;48.962;9.182;2023-03-12T10:25:41;16.50;;;9.67;;
19679;SDS011;9989;48.962;9.182;2023-03-12T10:28:17;18.60;;;10.80;;
19679;SDS011;9989;48.962;9.182;2023-03-12T10:30:49;15.83;;;9.33;;
19679;SDS011;9989;48.962;9.182;2023-03-12T10:33:18;17.80;;;9.77;;
19679;SDS011;9989;48.962;9.182;2023-03-12T10:35:45;17.67;;;8.83;;
19679;SDS011;9989;48.962;9.182;2023-03-12T10:38:23;15.27;;;9.60;;
19679;SDS011;9989;48.962;9.182;2023-03-12T10:40:53;15.87;;;8.80;;
19679;SDS011;9989;48.962;9.182;2023-03-12T10:43:18;15.07;;;9.10;;
19679;SDS011;9989;48.962;9.182;2023-03-12T10:48:11;15.20;;;9.57;;
19679;SDS011;9989;48.962;9.182;2023-03-12T10:50:43;18.07;;;9.00;;
19679;SDS011;9989;48.962;9.182;2023-03-12T10:53:26;14.90;;;9.07;;
19679;SDS011;9989;48.962;9.182;2023-03-12T10:58:24;16.37;;;9.40;;
19679;SDS011;9989;48.962;9.182;2023-03-12T11:00:54;15.87;;;9.93;;
19679;SDS011;9989;48.962;9.182;2023-03-12T11:03:21;15.23;;;9.77;;
19679;SDS011;9989;48.962;9.182;2023-03-12T11:05:48;18.23;;;11.00;;
19679;SDS011;9989;48.962;9.182;2023-03-12T11:10:53;16.23;;;9.40;;
19679;SDS011;9989;48.962;9.182;2023-03-12T11:15:48;16.27;;;9.60;;
19679;SDS011;9989;48.962;9.182;2023-03-12T11:20:42;15.20;;;9.63;;
19679;SDS011;9989;48.962;9.182;2023-03-12T11:23:14;15.83;;;9.80;;
19679;SDS011;9989;48.962;9.182;2023-03-12T11:26:20;15.87;;;9.97;;
19679;SDS011;9989;48.962;9.182;2023-03-12T11:28:51;15.37;;;9.97;;
19679;SDS011;9989;48.962;9.182;2023-03-12T11:31:40;17.87;;;9.60;;
19679;SDS011;9989;48.962;9.182;2023-03-12T11:34:20;14.37;;;8.77;;
19679;SDS011;9989;48.962;9.182;2023-03-12T12:09:51;15.57;;;6.50;;
19679;SDS011;9989;48.962;9.182;2023-03-12T12:20:45;10.10;;;4.97;;
19679;SDS011;9989;48.962;9.182;2023-03-12T12:26:09;10.57;;;4.27;;
19679;SDS011;9989;48.962;9.182;2023-03-12T12:36:49;9.23;;;4.20;;
19679;SDS011;9989;48.962;9.182;2023-03-12T12:39:22;8.67;;;4.00;;
19679;SDS011;9989;48.962;9.182;2023-03-12T12:42:01;10.13;;;3.53;;
19679;SDS011;9989;48.962;9.182;2023-03-12T12:44:31;10.40;;;4.10;;
19679;SDS011;9989;48.962;9.182;2023-03-12T12:47:01;9.97;;;3.30;;
19679;SDS011;9989;48.962;9.182;2023-03-12T12:52:02;7.10;;;2.63;;
19679;SDS011;9989;48.962;9.182;2023-03-12T12:57:09;6.33;;;2.20;;
19679;SDS011;9989;48.962;9.182;2023-03-12T12:59:43;7.87;;;2.67;;
19679;SDS011;9989;48.962;9.182;2023-03-12T13:02:33;4.83;;;1.97;;
19679;SDS011;9989;48.962;9.182;2023-03-12T13:05:12;7.73;;;2.10;;
19679;SDS011;9989;48.962;9.182;2023-03-12T13:07:59;6.10;;;1.90;;
19679;SDS011;9989;48.962;9.182;2023-03-12T13:15:45;8.00;;;2.17;;
19679;SDS011;9989;48.962;9.182;2023-03-12T13:18:24;5.30;;;1.70;;
19679;SDS011;9989;48.962;9.182;2023-03-12T13:26:22;6.33;;;2.10;;
19679;SDS011;9989;48.962;9.182;2023-03-12T13:29:22;8.63;;;2.33;;
19679;SDS011;9989;48.962;9.182;2023-03-12T13:32:01;9.63;;;2.53;;
19679;SDS011;9989;48.962;9.182;2023-03-12T13:34:29;6.93;;;2.00;;
19679;SDS011;9989;48.962;9.182;2023-03-12T13:36:58;6.30;;;2.07;;
19679;SDS011;9989;48.962;9.182;2023-03-12T13:41:56;8.20;;;2.33;;
19679;SDS011;9989;48.962;9.182;2023-03-12T13:52:25;7.33;;;1.97;;
19679;SDS011;9989;48.962;9.182;2023-03-12T14:00:31;7.07;;;1.97;;
19679;SDS011;9989;48.962;9.182;2023-03-12T14:03:02;5.87;;;2.00;;
19679;SDS011;9989;48.962;9.182;2023-03-12T14:05:42;9.03;;;2.47;;
19679;SDS011;9989;48.962;9.182;2023-03-12T14:08:22;8.57;;;2.47;;
19679;SDS011;9989;48.962;9.182;2023-03-12T14:16:29;11.20;;;2.70;;
19679;SDS011;9989;48.962;9.182;2023-03-12T14:19:05;8.07;;;2.43;;
19679;SDS011;9989;48.962;9.182;2023-03-12T14:21:33;8.57;;;2.60;;
19679;SDS011;9989;48.962;9.182;2023-03-12T14:24:02;9.73;;;2.57;;
19679;SDS011;9989;48.962;9.182;2023-03-12T14:26:32;7.83;;;2.70;;
19679;SDS011;9989;48.962;9.182;2023-03-12T14:29:06;11.27;;;2.93;;
19679;SDS011;9989;48.962;9.182;2023-03-12T14:31:35;11.30;;;3.30;;
19679;SDS011;9989;48.962;9.182;2023-03-12T14:34:11;8.33;;;2.93;;
19679;SDS011;9989;48.962;9.182;2023-03-12T14:39:14;10.77;;;3.00;;
19679;SDS011;9989;48.962;9.182;2023-03-12T14:41:52;8.30;;;3.00;;
19679;SDS011;9989;48.962;9.182;2023-03-12T14:44:23;8.00;;;2.33;;
19679;SDS011;9989;48.962;9.182;2023-03-12T14:46:55;11.33;;;2.73;;
19679;SDS011;9989;48.962;9.182;2023-03-12T14:49:24;11.70;;;2.63;;
19679;SDS011;9989;48.962;9.182;2023-03-12T14:51:49;6.87;;;2.13;;
19679;SDS011;9989;48.962;9.182;2023-03-12T14:54:19;9.87;;;2.63;;
19679;SDS011;9989;48.962;9.182;2023-03-12T14:56:48;14.53;;;3.30;;
19679;SDS011;9989;48.962;9.182;2023-03-12T15:01:46;10.20;;;3.00;;
19679;SDS011;9989;48.962;9.182;2023-03-12T15:04:13;9.10;;;2.37;;
19679;SDS011;9989;48.962;9.182;2023-03-12T15:06:43;8.67;;;2.20;;
19679;SDS011;9989;48.962;9.182;2023-03-12T15:09:15;8.10;;;2.30;;
19679;SDS011;9989;48.962;9.182;2023-03-12T15:11:43;11.63;;;2.77;;
19679;SDS011;9989;48.962;9.182;2023-03-12T15:14:27;9.50;;;2.10;;
19679;SDS011;9989;48.962;9.182;2023-03-12T15:16:56;12.10;;;2.50;;
19679;SDS011;9989;48.962;9.182;2023-03-12T15:19:27;9.27;;;2.50;;
19679;SDS011;9989;48.962;9.182;2023-03-12T15:21:57;12.93;;;3.07;;
19679;SDS011;9989;48.962;9.182;2023-03-12T15:24:25;10.97;;;3.40;;
19679;SDS011;9989;48.962;9.182;2023-03-12T15:26:54;10.70;;;3.87;;
19679;SDS011;9989;48.962;9.182;2023-03-12T15:29:24;13.00;;;3.13;;
19679;SDS011;9989;48.962;9.182;2023-03-12T15:31:52;8.47;;;2.10;;
19679;SDS011;9989;48.962;9.182;2023-03-12T15:34:41;8.23;;;2.33;;
19679;SDS011;9989;48.962;9.182;2023-03-12T15:40:15;8.53;;;2.60;;
19679;SDS011;9989;48.962;9.182;2023-03-12T15:42:47;10.70;;;2.63;;
19679;SDS011;9989;48.962;9.182;2023-03-12T15:45:15;10.10;;;2.63;;
19679;SDS011;9989;48.962;9.182;2023-03-12T15:47:47;8.77;;;2.33;;
19679;SDS011;9989;48.962;9.182;2023-03-12T15:50:19;7.50;;;2.03;;
19679;SDS011;9989;48.962;9.182;2023-03-12T15:55:38;12.47;;;3.37;;
19679;SDS011;9989;48.962;9.182;2023-03-12T16:03:43;11.33;;;3.20;;
19679;SDS011;9989;48.962;9.182;2023-03-12T16:06:11;9.33;;;2.83;;
19679;SDS011;9989;48.962;9.182;2023-03-12T16:08:45;13.10;;;3.90;;
19679;SDS011;9989;48.962;9.182;2023-03-12T16:11:16;10.70;;;3.40;;
19679;SDS011;9989;48.962;9.182;2023-03-12T16:13:44;10.00;;;3.13;;
19679;SDS011;9989;48.962;9.182;2023-03-12T16:16:12;16.37;;;3.60;;
19679;SDS011;9989;48.962;9.182;2023-03-12T16:18:39;10.93;;;3.27;;
19679;SDS011;9989;48.962;9.182;2023-03-12T16:21:06;12.00;;;3.13;;
19679;SDS011;9989;48.962;9.182;2023-03-12T16:23:32;8.87;;;2.90;;
19679;SDS011;9989;48.962;9.182;2023-03-12T16:25:58;8.30;;;2.80;;
19679;SDS011;9989;48.962;9.182;2023-03-12T16:28:24;8.67;;;3.30;;
19679;SDS011;9989;48.962;9.182;2023-03-12T16:30:51;11.07;;;2.83;;
19679;SDS011;9989;48.962;9.182;2023-03-12T16:33:18;11.67;;;3.03;;
19679;SDS011;9989;48.962;9.182;2023-03-12T16:35:45;18.07;;;5.07;;
19679;SDS011;9989;48.962;9.182;2023-03-12T16:38:11;10.00;;;3.70;;
19679;SDS011;9989;48.962;9.182;2023-03-12T16:40:37;13.77;;;3.43;;
19679;SDS011;9989;48.962;9.182;2023-03-12T16:43:06;16.23;;;3.70;;
19679;SDS011;9989;48.962;9.182;2023-03-12T16:45:41;8.77;;;3.07;;
19679;SDS011;9989;48.962;9.182;2023-03-12T16:48:10;11.40;;;3.70;;
19679;SDS011;9989;48.962;9.182;2023-03-12T16:50:45;12.50;;;3.63;;
19679;SDS011;9989;48.962;9.182;2023-03-12T16:53:12;10.13;;;3.40;;
19679;SDS011;9989;48.962;9.182;2023-03-12T16:55:42;10.47;;;4.00;;
19679;SDS011;9989;48.962;9.182;2023-03-12T16:58:11;17.57;;;7.53;;
19679;SDS011;9989;48.962;9.182;2023-03-12T17:00:39;16.17;;;6.60;;
19679;SDS011;9989;48.962;9.182;2023-03-12T17:03:05;19.00;;;7.13;;
19679;SDS011;9989;48.962;9.182;2023-03-12T17:05:31;20.70;;;8.40;;
19679;SDS011;9989;48.962;9.182;2023-03-12T17:07:57;21.83;;;10.10;;
19679;SDS011;9989;48.962;9.182;2023-03-12T17:10:23;22.37;;;10.93;;
19679;SDS011;9989;48.962;9.182;2023-03-12T17:12:50;20.53;;;8.77;;
19679;SDS011;9989;48.962;9.182;2023-03-12T17:15:24;16.23;;;7.07;;
19679;SDS011;9989;48.962;9.182;2023-03-12T17:17:51;14.00;;;5.83;;
19679;SDS011;9989;48.962;9.182;2023-03-12T17:20:19;16.40;;;5.70;;